sensor_id;sensor_type;location;lat;lon;timestamp;P1;durP1;ratioP1;P2;durP2;ratioP2
56730;SDS011;42613;47.424;8.560;2022-07-09T00:00:29;5.53;;;1.90;;
56730;SDS011;42613;47.424;8.560;2022-07-09T00:02:55;6.78;;;1.50;;
56730;SDS011;42613;47.424;8.560;2022-07-09T00:05:20;2.20;;;1.30;;
56730;SDS011;42613;47.424;8.560;2022-07-09T00:07:46;8.35;;;1.48;;
56730;SDS011;42613;47.424;8.560;2022-07-09T00:10:11;3.07;;;1.90;;
56730;SDS011;42613;47.424;8.560;2022-07-09T00:12:36;4.57;;;2.00;;
56730;SDS011;42613;47.424;8.560;2022-07-09T00:15:02;13.75;;;8.13;;
56730;SDS011;42613;47.424;8.560;2022-07-09T00:17:28;10.38;;;6.40;;
56730;SDS011;42613;47.424;8.560;2022-07-09T00:19:55;8.43;;;4.18;;
56730;SDS011;42613;47.424;8.560;2022-07-09T00:22:21;6.20;;;2.55;;
56730;SDS011;42613;47.424;8.560;2022-07-09T00:24:46;6.45;;;3.05;;
56730;SDS011;42613;47.424;8.560;2022-07-09T00:27:11;1.85;;;1.40;;
56730;SDS011;42613;47.424;8.560;2022-07-09T00:29:36;3.97;;;1.77;;
56730;SDS011;42613;47.424;8.560;2022-07-09T00:32:02;5.65;;;1.40;;
56730;SDS011;42613;47.424;8.560;2022-07-09T00:34:27;8.13;;;1.30;;
56730;SDS011;42613;47.424;8.560;2022-07-09T00:36:53;4.82;;;1.17;;
56730;SDS011;42613;47.424;8.560;2022-07-09T00:39:18;4.53;;;1.33;;
56730;SDS011;42613;47.424;8.560;2022-07-09T00:41:43;3.60;;;1.17;;
56730;SDS011;42613;47.424;8.560;2022-07-09T00:44:09;4.28;;;1.67;;
56730;SDS011;42613;47.424;8.560;2022-07-09T00:46:34;5.82;;;1.73;;
56730;SDS011;42613;47.424;8.560;2022-07-09T00:48:59;1.60;;;1.35;;
56730;SDS011;42613;47.424;8.560;2022-07-09T00:51:29;4.90;;;1.75;;
56730;SDS011;42613;47.424;8.560;2022-07-09T00:53:55;6.93;;;1.67;;
56730;SDS011;42613;47.424;8.560;2022-07-09T00:56:21;4.20;;;1.58;;
56730;SDS011;42613;47.424;8.560;2022-07-09T00:58:47;3.33;;;1.30;;
56730;SDS011;42613;47.424;8.560;2022-07-09T01:01:13;1.75;;;1.30;;
56730;SDS011;42613;47.424;8.560;2022-07-09T01:03:39;2.33;;;1.35;;
56730;SDS011;42613;47.424;8.560;2022-07-09T01:06:04;5.28;;;2.17;;
56730;SDS011;42613;47.424;8.560;2022-07-09T01:08:29;2.92;;;1.75;;
56730;SDS011;42613;47.424;8.560;2022-07-09T01:10:55;6.70;;;1.95;;
56730;SDS011;42613;47.424;8.560;2022-07-09T01:13:21;9.07;;;4.82;;
56730;SDS011;42613;47.424;8.560;2022-07-09T01:15:47;8.90;;;2.33;;
56730;SDS011;42613;47.424;8.560;2022-07-09T01:18:12;9.45;;;2.45;;
56730;SDS011;42613;47.424;8.560;2022-07-09T01:20:38;5.68;;;2.47;;
56730;SDS011;42613;47.424;8.560;2022-07-09T01:23:03;6.18;;;2.42;;
56730;SDS011;42613;47.424;8.560;2022-07-09T01:25:36;5.53;;;2.00;;
56730;SDS011;42613;47.424;8.560;2022-07-09T01:28:04;3.80;;;1.63;;
56730;SDS011;42613;47.424;8.560;2022-07-09T01:30:31;7.75;;;1.80;;
56730;SDS011;42613;47.424;8.560;2022-07-09T01:32:58;4.53;;;1.75;;
56730;SDS011;42613;47.424;8.560;2022-07-09T01:35:23;4.20;;;1.85;;
56730;SDS011;42613;47.424;8.560;2022-07-09T01:37:49;4.68;;;1.40;;
56730;SDS011;42613;47.424;8.560;2022-07-09T01:40:14;2.67;;;1.42;;
56730;SDS011;42613;47.424;8.560;2022-07-09T01:42:40;9.05;;;1.58;;
56730;SDS011;42613;47.424;8.560;2022-07-09T01:45:05;4.70;;;1.70;;
56730;SDS011;42613;47.424;8.560;2022-07-09T01:47:31;4.32;;;1.80;;
56730;SDS011;42613;47.424;8.560;2022-07-09T01:49:57;3.20;;;1.77;;
56730;SDS011;42613;47.424;8.560;2022-07-09T01:52:22;3.20;;;1.48;;
56730;SDS011;42613;47.424;8.560;2022-07-09T01:54:48;1.65;;;1.50;;
56730;SDS011;42613;47.424;8.560;2022-07-09T01:57:13;1.92;;;1.33;;
56730;SDS011;42613;47.424;8.560;2022-07-09T01:59:38;4.60;;;1.58;;
56730;SDS011;42613;47.424;8.560;2022-07-09T02:02:04;3.08;;;1.52;;
56730;SDS011;42613;47.424;8.560;2022-07-09T02:04:30;6.57;;;1.67;;
56730;SDS011;42613;47.424;8.560;2022-07-09T02:06:55;7.72;;;2.13;;
56730;SDS011;42613;47.424;8.560;2022-07-09T02:09:21;8.48;;;1.60;;
56730;SDS011;42613;47.424;8.560;2022-07-09T02:11:46;3.05;;;1.60;;
56730;SDS011;42613;47.424;8.560;2022-07-09T02:14:13;3.65;;;1.33;;
56730;SDS011;42613;47.424;8.560;2022-07-09T02:16:38;3.88;;;1.55;;
56730;SDS011;42613;47.424;8.560;2022-07-09T02:19:03;5.57;;;1.20;;
56730;SDS011;42613;47.424;8.560;2022-07-09T02:21:29;1.70;;;1.30;;
56730;SDS011;42613;47.424;8.560;2022-07-09T02:23:54;3.83;;;1.38;;
56730;SDS011;42613;47.424;8.560;2022-07-09T02:26:23;3.28;;;1.60;;
56730;SDS011;42613;47.424;8.560;2022-07-09T02:28:50;2.88;;;1.30;;
56730;SDS011;42613;47.424;8.560;2022-07-09T02:31:16;4.68;;;1.35;;
56730;SDS011;42613;47.424;8.560;2022-07-09T02:33:42;5.45;;;1.88;;
56730;SDS011;42613;47.424;8.560;2022-07-09T02:36:07;4.20;;;1.58;;
56730;SDS011;42613;47.424;8.560;2022-07-09T02:38:32;3.50;;;1.90;;
56730;SDS011;42613;47.424;8.560;2022-07-09T02:40:58;3.67;;;1.23;;
56730;SDS011;42613;47.424;8.560;2022-07-09T02:43:23;2.22;;;1.30;;
56730;SDS011;42613;47.424;8.560;2022-07-09T02:45:49;5.35;;;1.63;;
56730;SDS011;42613;47.424;8.560;2022-07-09T02:48:16;1.20;;;1.10;;
56730;SDS011;42613;47.424;8.560;2022-07-09T02:50:41;1.63;;;1.38;;
56730;SDS011;42613;47.424;8.560;2022-07-09T02:53:06;2.50;;;1.67;;
56730;SDS011;42613;47.424;8.560;2022-07-09T02:55:32;6.70;;;1.58;;
56730;SDS011;42613;47.424;8.560;2022-07-09T02:57:57;3.53;;;1.30;;
56730;SDS011;42613;47.424;8.560;2022-07-09T03:00:22;5.15;;;1.63;;
56730;SDS011;42613;47.424;8.560;2022-07-09T03:02:48;5.18;;;1.50;;
56730;SDS011;42613;47.424;8.560;2022-07-09T03:05:13;1.75;;;1.20;;
56730;SDS011;42613;47.424;8.560;2022-07-09T03:07:38;1.42;;;1.23;;
56730;SDS011;42613;47.424;8.560;2022-07-09T03:10:04;6.25;;;1.45;;
56730;SDS011;42613;47.424;8.560;2022-07-09T03:12:29;3.10;;;1.35;;
56730;SDS011;42613;47.424;8.560;2022-07-09T03:14:55;5.13;;;1.50;;
56730;SDS011;42613;47.424;8.560;2022-07-09T03:17:20;3.45;;;1.50;;
56730;SDS011;42613;47.424;8.560;2022-07-09T03:19:45;7.53;;;1.55;;
56730;SDS011;42613;47.424;8.560;2022-07-09T03:22:11;2.03;;;1.35;;
56730;SDS011;42613;47.424;8.560;2022-07-09T03:24:37;7.63;;;1.85;;
56730;SDS011;42613;47.424;8.560;2022-07-09T03:27:02;2.42;;;1.60;;
56730;SDS011;42613;47.424;8.560;2022-07-09T03:29:27;4.28;;;1.85;;
56730;SDS011;42613;47.424;8.560;2022-07-09T03:31:53;3.22;;;1.70;;
56730;SDS011;42613;47.424;8.560;2022-07-09T03:34:18;2.58;;;1.48;;
56730;SDS011;42613;47.424;8.560;2022-07-09T03:36:44;2.08;;;1.20;;
56730;SDS011;42613;47.424;8.560;2022-07-09T03:39:09;4.97;;;1.30;;
56730;SDS011;42613;47.424;8.560;2022-07-09T03:41:34;6.53;;;1.15;;
56730;SDS011;42613;47.424;8.560;2022-07-09T03:44:00;2.63;;;1.50;;
56730;SDS011;42613;47.424;8.560;2022-07-09T03:46:25;3.80;;;1.95;;
56730;SDS011;42613;47.424;8.560;2022-07-09T03:48:50;3.63;;;1.70;;
56730;SDS011;42613;47.424;8.560;2022-07-09T03:51:16;3.13;;;1.48;;
56730;SDS011;42613;47.424;8.560;2022-07-09T03:53:41;7.78;;;1.83;;
56730;SDS011;42613;47.424;8.560;2022-07-09T03:56:07;2.75;;;1.50;;
56730;SDS011;42613;47.424;8.560;2022-07-09T03:58:33;6.18;;;1.55;;
56730;SDS011;42613;47.424;8.560;2022-07-09T04:00:58;4.43;;;1.60;;
56730;SDS011;42613;47.424;8.560;2022-07-09T04:03:23;13.30;;;2.08;;
56730;SDS011;42613;47.424;8.560;2022-07-09T04:05:49;3.15;;;1.30;;
56730;SDS011;42613;47.424;8.560;2022-07-09T04:08:14;7.88;;;2.42;;
56730;SDS011;42613;47.424;8.560;2022-07-09T04:10:40;5.43;;;1.30;;
56730;SDS011;42613;47.424;8.560;2022-07-09T04:13:05;6.90;;;1.50;;
56730;SDS011;42613;47.424;8.560;2022-07-09T04:15:30;3.53;;;1.30;;
56730;SDS011;42613;47.424;8.560;2022-07-09T04:17:57;4.43;;;1.65;;
56730;SDS011;42613;47.424;8.560;2022-07-09T04:20:22;8.40;;;1.85;;
56730;SDS011;42613;47.424;8.560;2022-07-09T04:22:50;2.17;;;1.17;;
56730;SDS011;42613;47.424;8.560;2022-07-09T04:25:16;8.15;;;2.05;;
56730;SDS011;42613;47.424;8.560;2022-07-09T04:27:41;2.08;;;1.30;;
56730;SDS011;42613;47.424;8.560;2022-07-09T04:30:07;3.03;;;1.83;;
56730;SDS011;42613;47.424;8.560;2022-07-09T04:32:34;5.70;;;1.90;;
56730;SDS011;42613;47.424;8.560;2022-07-09T04:34:59;4.25;;;1.55;;
56730;SDS011;42613;47.424;8.560;2022-07-09T04:37:25;2.30;;;1.73;;
56730;SDS011;42613;47.424;8.560;2022-07-09T04:39:50;4.55;;;1.20;;
56730;SDS011;42613;47.424;8.560;2022-07-09T04:42:16;2.38;;;1.27;;
56730;SDS011;42613;47.424;8.560;2022-07-09T04:44:41;3.95;;;1.70;;
56730;SDS011;42613;47.424;8.560;2022-07-09T04:47:08;4.28;;;1.67;;
56730;SDS011;42613;47.424;8.560;2022-07-09T04:49:34;2.45;;;1.70;;
56730;SDS011;42613;47.424;8.560;2022-07-09T04:51:59;10.25;;;2.08;;
56730;SDS011;42613;47.424;8.560;2022-07-09T04:54:25;2.92;;;1.90;;
56730;SDS011;42613;47.424;8.560;2022-07-09T04:56:50;6.50;;;1.73;;
56730;SDS011;42613;47.424;8.560;2022-07-09T04:59:15;10.40;;;1.83;;
56730;SDS011;42613;47.424;8.560;2022-07-09T05:01:41;8.38;;;2.03;;
56730;SDS011;42613;47.424;8.560;2022-07-09T05:04:07;8.38;;;3.08;;
56730;SDS011;42613;47.424;8.560;2022-07-09T05:06:32;9.95;;;2.50;;
56730;SDS011;42613;47.424;8.560;2022-07-09T05:08:58;2.55;;;1.70;;
56730;SDS011;42613;47.424;8.560;2022-07-09T05:11:23;3.13;;;1.85;;
56730;SDS011;42613;47.424;8.560;2022-07-09T05:13:50;5.45;;;2.00;;
56730;SDS011;42613;47.424;8.560;2022-07-09T05:16:15;3.50;;;1.90;;
56730;SDS011;42613;47.424;8.560;2022-07-09T05:18:41;2.60;;;1.50;;
56730;SDS011;42613;47.424;8.560;2022-07-09T05:21:09;4.32;;;1.80;;
56730;SDS011;42613;47.424;8.560;2022-07-09T05:23:35;4.95;;;1.75;;
56730;SDS011;42613;47.424;8.560;2022-07-09T05:26:00;4.13;;;1.70;;
56730;SDS011;42613;47.424;8.560;2022-07-09T05:28:25;4.57;;;2.17;;
56730;SDS011;42613;47.424;8.560;2022-07-09T05:30:54;6.07;;;1.90;;
56730;SDS011;42613;47.424;8.560;2022-07-09T05:33:19;5.15;;;1.92;;
56730;SDS011;42613;47.424;8.560;2022-07-09T05:35:44;6.63;;;2.08;;
56730;SDS011;42613;47.424;8.560;2022-07-09T05:38:10;3.78;;;1.65;;
56730;SDS011;42613;47.424;8.560;2022-07-09T05:40:35;7.25;;;1.85;;
56730;SDS011;42613;47.424;8.560;2022-07-09T05:43:00;4.47;;;1.58;;
56730;SDS011;42613;47.424;8.560;2022-07-09T05:45:26;6.15;;;2.35;;
56730;SDS011;42613;47.424;8.560;2022-07-09T05:47:51;6.00;;;1.90;;
56730;SDS011;42613;47.424;8.560;2022-07-09T05:50:16;7.45;;;1.77;;
56730;SDS011;42613;47.424;8.560;2022-07-09T05:52:42;3.22;;;1.27;;
56730;SDS011;42613;47.424;8.560;2022-07-09T05:55:07;2.72;;;1.48;;
56730;SDS011;42613;47.424;8.560;2022-07-09T05:57:33;10.77;;;1.73;;
56730;SDS011;42613;47.424;8.560;2022-07-09T05:59:58;6.47;;;1.85;;
56730;SDS011;42613;47.424;8.560;2022-07-09T06:02:24;3.00;;;0.80;;
56730;SDS011;42613;47.424;8.560;2022-07-09T06:04:49;8.00;;;1.70;;
56730;SDS011;42613;47.424;8.560;2022-07-09T06:07:15;2.63;;;1.00;;
56730;SDS011;42613;47.424;8.560;2022-07-09T06:09:40;5.95;;;1.63;;
56730;SDS011;42613;47.424;8.560;2022-07-09T06:12:06;3.50;;;1.23;;
56730;SDS011;42613;47.424;8.560;2022-07-09T06:14:32;2.22;;;1.05;;
56730;SDS011;42613;47.424;8.560;2022-07-09T06:16:57;7.60;;;1.85;;
56730;SDS011;42613;47.424;8.560;2022-07-09T06:19:26;4.25;;;1.80;;
56730;SDS011;42613;47.424;8.560;2022-07-09T06:21:51;3.22;;;0.85;;
56730;SDS011;42613;47.424;8.560;2022-07-09T06:24:16;1.75;;;0.85;;
56730;SDS011;42613;47.424;8.560;2022-07-09T06:26:42;0.55;;;0.50;;
56730;SDS011;42613;47.424;8.560;2022-07-09T06:29:07;5.45;;;1.50;;
56730;SDS011;42613;47.424;8.560;2022-07-09T06:31:32;1.27;;;0.60;;
56730;SDS011;42613;47.424;8.560;2022-07-09T06:33:58;2.58;;;0.77;;
56730;SDS011;42613;47.424;8.560;2022-07-09T06:36:23;5.60;;;1.80;;
56730;SDS011;42613;47.424;8.560;2022-07-09T06:38:49;3.92;;;0.70;;
56730;SDS011;42613;47.424;8.560;2022-07-09T06:41:33;5.93;;;1.23;;
56730;SDS011;42613;47.424;8.560;2022-07-09T06:43:58;3.45;;;0.80;;
56730;SDS011;42613;47.424;8.560;2022-07-09T06:46:24;2.75;;;0.98;;
56730;SDS011;42613;47.424;8.560;2022-07-09T06:48:49;3.60;;;1.33;;
56730;SDS011;42613;47.424;8.560;2022-07-09T06:51:14;3.35;;;1.42;;
56730;SDS011;42613;47.424;8.560;2022-07-09T06:53:40;4.30;;;1.20;;
56730;SDS011;42613;47.424;8.560;2022-07-09T06:56:06;4.85;;;0.52;;
56730;SDS011;42613;47.424;8.560;2022-07-09T06:58:31;0.88;;;0.60;;
56730;SDS011;42613;47.424;8.560;2022-07-09T07:00:56;6.32;;;1.92;;
56730;SDS011;42613;47.424;8.560;2022-07-09T07:03:22;2.90;;;0.90;;
56730;SDS011;42613;47.424;8.560;2022-07-09T07:05:47;4.32;;;1.70;;
56730;SDS011;42613;47.424;8.560;2022-07-09T07:08:12;2.30;;;1.27;;
56730;SDS011;42613;47.424;8.560;2022-07-09T07:10:38;1.90;;;0.43;;
56730;SDS011;42613;47.424;8.560;2022-07-09T07:13:03;2.80;;;1.20;;
56730;SDS011;42613;47.424;8.560;2022-07-09T07:15:28;1.75;;;1.10;;
56730;SDS011;42613;47.424;8.560;2022-07-09T07:17:53;2.17;;;1.10;;
56730;SDS011;42613;47.424;8.560;2022-07-09T07:20:19;3.70;;;1.17;;
56730;SDS011;42613;47.424;8.560;2022-07-09T07:22:47;5.05;;;1.25;;
56730;SDS011;42613;47.424;8.560;2022-07-09T07:25:13;4.22;;;2.42;;
56730;SDS011;42613;47.424;8.560;2022-07-09T07:27:38;0.90;;;0.28;;
56730;SDS011;42613;47.424;8.560;2022-07-09T07:30:04;2.13;;;1.15;;
56730;SDS011;42613;47.424;8.560;2022-07-09T07:32:29;0.20;;;0.20;;
56730;SDS011;42613;47.424;8.560;2022-07-09T07:34:55;3.22;;;1.10;;
56730;SDS011;42613;47.424;8.560;2022-07-09T07:37:20;4.13;;;0.35;;
56730;SDS011;42613;47.424;8.560;2022-07-09T07:39:46;5.18;;;0.52;;
56730;SDS011;42613;47.424;8.560;2022-07-09T07:42:12;2.88;;;0.80;;
56730;SDS011;42613;47.424;8.560;2022-07-09T07:44:38;2.58;;;1.00;;
56730;SDS011;42613;47.424;8.560;2022-07-09T07:47:04;1.60;;;0.70;;
56730;SDS011;42613;47.424;8.560;2022-07-09T07:49:29;5.03;;;1.48;;
56730;SDS011;42613;47.424;8.560;2022-07-09T07:51:54;1.95;;;0.57;;
56730;SDS011;42613;47.424;8.560;2022-07-09T07:54:20;1.30;;;0.30;;
56730;SDS011;42613;47.424;8.560;2022-07-09T07:56:45;2.80;;;0.80;;
56730;SDS011;42613;47.424;8.560;2022-07-09T07:59:10;2.47;;;1.33;;
56730;SDS011;42613;47.424;8.560;2022-07-09T08:01:36;2.17;;;0.90;;
56730;SDS011;42613;47.424;8.560;2022-07-09T08:04:01;5.28;;;1.60;;
56730;SDS011;42613;47.424;8.560;2022-07-09T08:06:27;2.28;;;0.80;;
56730;SDS011;42613;47.424;8.560;2022-07-09T08:08:53;2.28;;;0.90;;
56730;SDS011;42613;47.424;8.560;2022-07-09T08:11:18;2.58;;;1.20;;
56730;SDS011;42613;47.424;8.560;2022-07-09T08:13:43;2.92;;;0.77;;
56730;SDS011;42613;47.424;8.560;2022-07-09T08:16:09;2.75;;;0.90;;
56730;SDS011;42613;47.424;8.560;2022-07-09T08:18:34;4.20;;;1.40;;
56730;SDS011;42613;47.424;8.560;2022-07-09T08:20:59;2.15;;;1.05;;
56730;SDS011;42613;47.424;8.560;2022-07-09T08:23:25;5.60;;;1.10;;
56730;SDS011;42613;47.424;8.560;2022-07-09T08:25:50;1.17;;;0.80;;
56730;SDS011;42613;47.424;8.560;2022-07-09T08:28:16;2.55;;;0.88;;
56730;SDS011;42613;47.424;8.560;2022-07-09T08:30:41;4.20;;;1.00;;
56730;SDS011;42613;47.424;8.560;2022-07-09T08:33:07;3.17;;;2.10;;
56730;SDS011;42613;47.424;8.560;2022-07-09T08:35:32;2.78;;;0.90;;
56730;SDS011;42613;47.424;8.560;2022-07-09T08:37:58;3.72;;;1.30;;
56730;SDS011;42613;47.424;8.560;2022-07-09T08:40:24;2.95;;;1.08;;
56730;SDS011;42613;47.424;8.560;2022-07-09T08:42:50;2.13;;;0.85;;
56730;SDS011;42613;47.424;8.560;2022-07-09T08:45:18;6.53;;;1.10;;
56730;SDS011;42613;47.424;8.560;2022-07-09T08:47:45;2.20;;;0.77;;
56730;SDS011;42613;47.424;8.560;2022-07-09T08:50:12;3.10;;;1.23;;
56730;SDS011;42613;47.424;8.560;2022-07-09T08:52:38;1.95;;;1.00;;
56730;SDS011;42613;47.424;8.560;2022-07-09T08:55:05;4.70;;;1.17;;
56730;SDS011;42613;47.424;8.560;2022-07-09T08:57:32;4.18;;;1.30;;
56730;SDS011;42613;47.424;8.560;2022-07-09T08:59:58;6.57;;;0.90;;
56730;SDS011;42613;47.424;8.560;2022-07-09T09:02:23;1.35;;;0.70;;
56730;SDS011;42613;47.424;8.560;2022-07-09T09:04:48;4.22;;;0.90;;
56730;SDS011;42613;47.424;8.560;2022-07-09T09:07:19;2.65;;;0.80;;
56730;SDS011;42613;47.424;8.560;2022-07-09T09:09:46;3.88;;;1.77;;
56730;SDS011;42613;47.424;8.560;2022-07-09T09:12:12;3.05;;;0.80;;
56730;SDS011;42613;47.424;8.560;2022-07-09T09:14:38;2.42;;;0.90;;
56730;SDS011;42613;47.424;8.560;2022-07-09T09:17:04;2.08;;;0.88;;
56730;SDS011;42613;47.424;8.560;2022-07-09T09:19:30;3.53;;;0.70;;
56730;SDS011;42613;47.424;8.560;2022-07-09T09:21:55;10.82;;;0.82;;
56730;SDS011;42613;47.424;8.560;2022-07-09T09:24:25;6.28;;;1.10;;
56730;SDS011;42613;47.424;8.560;2022-07-09T09:26:51;4.93;;;0.90;;
56730;SDS011;42613;47.424;8.560;2022-07-09T09:29:16;3.00;;;0.90;;
56730;SDS011;42613;47.424;8.560;2022-07-09T09:31:44;4.95;;;1.30;;
56730;SDS011;42613;47.424;8.560;2022-07-09T09:34:12;1.95;;;0.93;;
56730;SDS011;42613;47.424;8.560;2022-07-09T09:36:40;3.10;;;1.00;;
56730;SDS011;42613;47.424;8.560;2022-07-09T09:41:42;2.78;;;1.00;;
56730;SDS011;42613;47.424;8.560;2022-07-09T09:44:09;6.68;;;1.35;;
56730;SDS011;42613;47.424;8.560;2022-07-09T10:43:18;1.55;;;0.70;;
56730;SDS011;42613;47.424;8.560;2022-07-09T10:46:08;0.65;;;0.52;;
56730;SDS011;42613;47.424;8.560;2022-07-09T10:48:35;3.58;;;1.17;;
56730;SDS011;42613;47.424;8.560;2022-07-09T10:51:01;3.47;;;1.00;;
56730;SDS011;42613;47.424;8.560;2022-07-09T10:53:28;2.80;;;0.75;;
56730;SDS011;42613;47.424;8.560;2022-07-09T10:55:54;3.05;;;0.57;;
56730;SDS011;42613;47.424;8.560;2022-07-09T10:58:21;3.55;;;0.70;;
56730;SDS011;42613;47.424;8.560;2022-07-09T11:00:56;1.98;;;0.70;;
56730;SDS011;42613;47.424;8.560;2022-07-09T11:03:26;4.30;;;0.70;;
56730;SDS011;42613;47.424;8.560;2022-07-09T11:05:52;2.33;;;0.80;;
56730;SDS011;42613;47.424;8.560;2022-07-09T11:08:18;0.88;;;0.50;;
56730;SDS011;42613;47.424;8.560;2022-07-09T11:10:43;1.63;;;0.70;;
56730;SDS011;42613;47.424;8.560;2022-07-09T11:13:09;1.75;;;0.82;;
56730;SDS011;42613;47.424;8.560;2022-07-09T11:15:34;1.30;;;0.60;;
56730;SDS011;42613;47.424;8.560;2022-07-09T11:23:25;3.05;;;0.80;;
56730;SDS011;42613;47.424;8.560;2022-07-09T11:25:51;3.28;;;0.93;;
56730;SDS011;42613;47.424;8.560;2022-07-09T11:28:23;3.00;;;1.10;;
56730;SDS011;42613;47.424;8.560;2022-07-09T11:33:23;3.78;;;0.70;;
56730;SDS011;42613;47.424;8.560;2022-07-09T11:35:49;1.33;;;0.40;;
56730;SDS011;42613;47.424;8.560;2022-07-09T11:38:14;1.75;;;0.60;;
56730;SDS011;42613;47.424;8.560;2022-07-09T11:40:40;3.42;;;0.70;;
56730;SDS011;42613;47.424;8.560;2022-07-09T11:43:12;1.52;;;0.65;;
56730;SDS011;42613;47.424;8.560;2022-07-09T11:45:39;1.10;;;0.50;;
56730;SDS011;42613;47.424;8.560;2022-07-09T11:48:05;2.45;;;0.60;;
56730;SDS011;42613;47.424;8.560;2022-07-09T11:50:43;1.08;;;0.52;;
56730;SDS011;42613;47.424;8.560;2022-07-09T11:53:19;1.25;;;0.52;;
56730;SDS011;42613;47.424;8.560;2022-07-09T11:56:01;1.33;;;0.70;;
56730;SDS011;42613;47.424;8.560;2022-07-09T12:00:54;1.25;;;0.50;;
56730;SDS011;42613;47.424;8.560;2022-07-09T12:03:23;1.08;;;0.50;;
56730;SDS011;42613;47.424;8.560;2022-07-09T12:05:52;1.33;;;0.75;;
56730;SDS011;42613;47.424;8.560;2022-07-09T12:08:27;2.05;;;0.40;;
56730;SDS011;42613;47.424;8.560;2022-07-09T12:10:59;1.95;;;0.70;;
56730;SDS011;42613;47.424;8.560;2022-07-09T12:13:25;1.33;;;0.60;;
56730;SDS011;42613;47.424;8.560;2022-07-09T12:15:50;1.17;;;0.45;;
56730;SDS011;42613;47.424;8.560;2022-07-09T12:18:16;0.82;;;0.30;;
56730;SDS011;42613;47.424;8.560;2022-07-09T12:20:41;2.67;;;0.50;;
56730;SDS011;42613;47.424;8.560;2022-07-09T12:23:06;0.98;;;0.50;;
56730;SDS011;42613;47.424;8.560;2022-07-09T12:25:32;1.85;;;0.30;;
56730;SDS011;42613;47.424;8.560;2022-07-09T12:27:57;3.10;;;0.63;;
56730;SDS011;42613;47.424;8.560;2022-07-09T12:30:22;0.60;;;0.35;;
56730;SDS011;42613;47.424;8.560;2022-07-09T12:32:48;1.45;;;0.60;;
56730;SDS011;42613;47.424;8.560;2022-07-09T12:35:14;0.77;;;0.35;;
56730;SDS011;42613;47.424;8.560;2022-07-09T12:37:41;0.93;;;0.50;;
56730;SDS011;42613;47.424;8.560;2022-07-09T12:40:07;1.95;;;0.52;;
56730;SDS011;42613;47.424;8.560;2022-07-09T12:42:35;1.25;;;0.43;;
56730;SDS011;42613;47.424;8.560;2022-07-09T12:45:00;1.30;;;0.40;;
56730;SDS011;42613;47.424;8.560;2022-07-09T12:47:26;0.73;;;0.50;;
56730;SDS011;42613;47.424;8.560;2022-07-09T12:49:52;5.80;;;0.45;;
56730;SDS011;42613;47.424;8.560;2022-07-09T12:52:18;0.45;;;0.30;;
56730;SDS011;42613;47.424;8.560;2022-07-09T12:54:44;0.60;;;0.35;;
56730;SDS011;42613;47.424;8.560;2022-07-09T12:57:09;0.88;;;0.30;;
56730;SDS011;42613;47.424;8.560;2022-07-09T12:59:35;2.58;;;0.50;;
56730;SDS011;42613;47.424;8.560;2022-07-09T13:02:01;1.17;;;0.30;;
56730;SDS011;42613;47.424;8.560;2022-07-09T13:04:27;7.30;;;0.68;;
56730;SDS011;42613;47.424;8.560;2022-07-09T13:06:52;1.75;;;0.50;;
56730;SDS011;42613;47.424;8.560;2022-07-09T13:09:18;0.65;;;0.32;;
56730;SDS011;42613;47.424;8.560;2022-07-09T13:11:44;2.55;;;0.43;;
56730;SDS011;42613;47.424;8.560;2022-07-09T13:14:09;0.93;;;0.38;;
56730;SDS011;42613;47.424;8.560;2022-07-09T13:16:35;1.77;;;0.40;;
56730;SDS011;42613;47.424;8.560;2022-07-09T13:19:01;1.27;;;0.52;;
56730;SDS011;42613;47.424;8.560;2022-07-09T13:21:27;0.57;;;0.50;;
56730;SDS011;42613;47.424;8.560;2022-07-09T13:23:54;0.38;;;0.30;;
56730;SDS011;42613;47.424;8.560;2022-07-09T13:26:20;2.55;;;0.45;;
56730;SDS011;42613;47.424;8.560;2022-07-09T13:28:45;0.85;;;0.40;;
56730;SDS011;42613;47.424;8.560;2022-07-09T13:31:11;2.67;;;0.32;;
56730;SDS011;42613;47.424;8.560;2022-07-09T13:33:36;0.65;;;0.32;;
56730;SDS011;42613;47.424;8.560;2022-07-09T13:36:03;2.60;;;0.35;;
56730;SDS011;42613;47.424;8.560;2022-07-09T13:38:30;2.30;;;0.40;;
56730;SDS011;42613;47.424;8.560;2022-07-09T13:40:56;2.40;;;0.30;;
56730;SDS011;42613;47.424;8.560;2022-07-09T13:43:22;2.95;;;1.67;;
56730;SDS011;42613;47.424;8.560;2022-07-09T13:45:54;1.52;;;0.80;;
56730;SDS011;42613;47.424;8.560;2022-07-09T13:48:21;2.88;;;0.50;;
56730;SDS011;42613;47.424;8.560;2022-07-09T13:50:47;2.10;;;0.50;;
56730;SDS011;42613;47.424;8.560;2022-07-09T13:53:12;0.93;;;0.70;;
56730;SDS011;42613;47.424;8.560;2022-07-09T13:55:37;3.00;;;0.57;;
56730;SDS011;42613;47.424;8.560;2022-07-09T13:58:03;1.10;;;0.40;;
56730;SDS011;42613;47.424;8.560;2022-07-09T14:00:29;1.55;;;0.30;;
56730;SDS011;42613;47.424;8.560;2022-07-09T14:02:54;1.00;;;0.40;;
56730;SDS011;42613;47.424;8.560;2022-07-09T14:05:20;0.50;;;0.40;;
56730;SDS011;42613;47.424;8.560;2022-07-09T14:07:45;3.25;;;0.35;;
56730;SDS011;42613;47.424;8.560;2022-07-09T14:10:11;1.15;;;0.30;;
56730;SDS011;42613;47.424;8.560;2022-07-09T14:12:37;0.73;;;0.38;;
56730;SDS011;42613;47.424;8.560;2022-07-09T14:15:02;4.82;;;0.50;;
56730;SDS011;42613;47.424;8.560;2022-07-09T14:17:29;2.65;;;0.43;;
56730;SDS011;42613;47.424;8.560;2022-07-09T14:19:54;1.15;;;0.40;;
56730;SDS011;42613;47.424;8.560;2022-07-09T14:22:19;1.55;;;0.50;;
56730;SDS011;42613;47.424;8.560;2022-07-09T14:24:45;2.67;;;0.55;;
56730;SDS011;42613;47.424;8.560;2022-07-09T14:27:10;1.33;;;0.50;;
56730;SDS011;42613;47.424;8.560;2022-07-09T14:29:37;1.50;;;0.70;;
56730;SDS011;42613;47.424;8.560;2022-07-09T14:32:03;2.70;;;0.57;;
56730;SDS011;42613;47.424;8.560;2022-07-09T14:34:29;2.22;;;0.40;;
56730;SDS011;42613;47.424;8.560;2022-07-09T14:36:54;0.77;;;0.40;;
56730;SDS011;42613;47.424;8.560;2022-07-09T14:39:20;0.80;;;0.40;;
56730;SDS011;42613;47.424;8.560;2022-07-09T14:41:46;3.05;;;0.60;;
56730;SDS011;42613;47.424;8.560;2022-07-09T14:44:12;0.93;;;0.47;;
56730;SDS011;42613;47.424;8.560;2022-07-09T14:46:38;1.35;;;0.50;;
56730;SDS011;42613;47.424;8.560;2022-07-09T14:49:04;1.38;;;0.50;;
56730;SDS011;42613;47.424;8.560;2022-07-09T14:51:29;4.53;;;0.32;;
56730;SDS011;42613;47.424;8.560;2022-07-09T14:53:55;1.70;;;0.73;;
56730;SDS011;42613;47.424;8.560;2022-07-09T14:56:20;0.90;;;0.60;;
56730;SDS011;42613;47.424;8.560;2022-07-09T14:58:46;2.50;;;0.47;;
56730;SDS011;42613;47.424;8.560;2022-07-09T15:01:11;2.00;;;0.90;;
56730;SDS011;42613;47.424;8.560;2022-07-09T15:03:37;0.93;;;0.57;;
56730;SDS011;42613;47.424;8.560;2022-07-09T15:06:02;2.00;;;0.30;;
56730;SDS011;42613;47.424;8.560;2022-07-09T15:08:27;1.45;;;0.50;;
56730;SDS011;42613;47.424;8.560;2022-07-09T15:10:53;3.73;;;0.50;;
56730;SDS011;42613;47.424;8.560;2022-07-09T15:13:18;2.30;;;0.32;;
56730;SDS011;42613;47.424;8.560;2022-07-09T15:15:43;1.80;;;0.60;;
56730;SDS011;42613;47.424;8.560;2022-07-09T15:18:09;0.70;;;0.38;;
56730;SDS011;42613;47.424;8.560;2022-07-09T15:20:34;1.27;;;0.50;;
56730;SDS011;42613;47.424;8.560;2022-07-09T15:23:00;1.85;;;0.40;;
56730;SDS011;42613;47.424;8.560;2022-07-09T15:25:26;0.57;;;0.40;;
56730;SDS011;42613;47.424;8.560;2022-07-09T15:27:53;0.57;;;0.35;;
56730;SDS011;42613;47.424;8.560;2022-07-09T15:30:19;1.75;;;0.40;;
56730;SDS011;42613;47.424;8.560;2022-07-09T15:32:45;2.85;;;0.40;;
56730;SDS011;42613;47.424;8.560;2022-07-09T15:35:11;0.68;;;0.40;;
56730;SDS011;42613;47.424;8.560;2022-07-09T15:37:38;0.75;;;0.30;;
56730;SDS011;42613;47.424;8.560;2022-07-09T15:40:04;0.85;;;0.30;;
56730;SDS011;42613;47.424;8.560;2022-07-09T15:42:30;2.47;;;0.52;;
56730;SDS011;42613;47.424;8.560;2022-07-09T15:44:56;2.30;;;0.45;;
56730;SDS011;42613;47.424;8.560;2022-07-09T15:47:21;1.90;;;0.47;;
56730;SDS011;42613;47.424;8.560;2022-07-09T15:49:46;1.85;;;0.40;;